Time;durP1;ratioP1;P1;durP2;ratioP2;P2;SDS_P1;SDS_P2;PMS_P1;PMS_P2;Temp;Humidity;BMP_temperature;BMP_pressure;BME280_temperature;BME280_humidity;BME280_pressure;Samples;Min_cycle;Max_cycle;Signal;HPM_P1;HPM_P2
2023/03/29 00:01:56;;;;;;;8.83;6.63;;;;;;;;;;5057445;28;20170;-67
2023/03/29 00:04:26;;;;;;;8.47;6.73;;;;;;;;;;5057431;28;20187;-68
2023/03/29 00:06:52;;;;;;;11.13;6.53;;;;;;;;;;5057072;28;20285;-68
2023/03/29 00:09:18;;;;;;;10.33;6.60;;;;;;;;;;5057259;28;20285;-68
2023/03/29 00:11:44;;;;;;;12.80;7.37;;;;;;;;;;5038774;28;20224;-68
2023/03/29 00:14:11;;;;;;;6.43;5.70;;;;;;;;;;5057908;28;20182;-67
2023/03/29 00:16:37;;;;;;;9.10;6.23;;;;;;;;;;5057298;28;20587;-67
2023/03/29 00:19:03;;;;;;;10.20;6.30;;;;;;;;;;5056419;28;20174;-68
2023/03/29 00:21:29;;;;;;;11.60;6.63;;;;;;;;;;5056770;28;20193;-68
2023/03/29 00:23:56;;;;;;;9.37;6.97;;;;;;;;;;5056673;28;20575;-66
2023/03/29 00:26:22;;;;;;;8.87;6.20;;;;;;;;;;5056510;28;20229;-68
2023/03/29 00:28:48;;;;;;;9.87;6.40;;;;;;;;;;5056718;28;20202;-67
2023/03/29 00:31:15;;;;;;;10.53;6.17;;;;;;;;;;5039240;28;20178;-67
2023/03/29 00:33:42;;;;;;;9.10;6.37;;;;;;;;;;5056701;28;20178;-68
2023/03/29 00:36:09;;;;;;;9.40;6.30;;;;;;;;;;5056048;28;20202;-67
2023/03/29 00:38:35;;;;;;;9.33;6.30;;;;;;;;;;5057223;28;20210;-67
2023/03/29 00:41:02;;;;;;;6.90;6.10;;;;;;;;;;5057476;28;20217;-68
2023/03/29 00:43:28;;;;;;;9.03;5.87;;;;;;;;;;5056149;28;20178;-68
2023/03/29 00:45:54;;;;;;;7.13;6.20;;;;;;;;;;5055613;28;20218;-68
2023/03/29 00:48:23;;;;;;;8.33;6.03;;;;;;;;;;5056175;28;20226;-67
2023/03/29 00:50:56;;;;;;;10.43;5.90;;;;;;;;;;5056602;28;20577;-67
2023/03/29 00:53:32;;;;;;;10.50;5.60;;;;;;;;;;5038969;28;20190;-68
2023/03/29 00:56:12;;;;;;;6.37;5.67;;;;;;;;;;5056917;28;20190;-67
2023/03/29 00:59:08;;;;;;;9.07;6.30;;;;;;;;;;5056631;28;20183;-67
2023/03/29 01:01:40;;;;;;;7.63;5.67;;;;;;;;;;5039133;28;20217;-68
2023/03/29 01:04:17;;;;;;;8.40;6.03;;;;;;;;;;5055837;28;20166;-68
2023/03/29 01:06:44;;;;;;;9.67;5.97;;;;;;;;;;5055525;28;20208;-66
2023/03/29 01:09:11;;;;;;;10.43;5.80;;;;;;;;;;5055293;28;20239;-69
2023/03/29 01:11:43;;;;;;;9.80;6.43;;;;;;;;;;5038096;28;20269;-67
2023/03/29 01:14:25;;;;;;;12.70;5.80;;;;;;;;;;5056237;28;20167;-67
2023/03/29 01:16:52;;;;;;;6.77;5.70;;;;;;;;;;5055659;28;20628;-68
2023/03/29 01:19:20;;;;;;;8.10;6.30;;;;;;;;;;5055236;28;20667;-69
2023/03/29 01:21:51;;;;;;;9.47;5.70;;;;;;;;;;5055446;28;20178;-68
2023/03/29 01:24:36;;;;;;;7.07;5.80;;;;;;;;;;5055088;28;20189;-68
2023/03/29 01:27:06;;;;;;;5.80;4.80;;;;;;;;;;5055049;28;20198;-68
2023/03/29 01:29:32;;;;;;;7.43;5.20;;;;;;;;;;5055320;28;20261;-68
2023/03/29 01:32:08;;;;;;;8.33;5.50;;;;;;;;;;5055264;28;20175;-67
2023/03/29 01:34:38;;;;;;;8.23;5.70;;;;;;;;;;5055392;28;20166;-68
2023/03/29 01:37:07;;;;;;;9.40;5.50;;;;;;;;;;5054846;28;20216;-67
2023/03/29 01:39:33;;;;;;;8.40;5.07;;;;;;;;;;5037187;28;20667;-67
2023/03/29 01:41:59;;;;;;;7.63;5.67;;;;;;;;;;5054832;28;20179;-67
2023/03/29 01:44:28;;;;;;;5.20;4.50;;;;;;;;;;5054833;28;20556;-68
2023/03/29 01:46:59;;;;;;;6.60;5.10;;;;;;;;;;5055406;28;20222;-68
2023/03/29 01:49:48;;;;;;;9.90;6.23;;;;;;;;;;5054722;28;20264;-68
2023/03/29 01:52:21;;;;;;;7.17;5.67;;;;;;;;;;5037188;28;20555;-68
2023/03/29 01:54:50;;;;;;;11.90;7.07;;;;;;;;;;5054894;28;20170;-67
2023/03/29 01:57:17;;;;;;;9.43;6.00;;;;;;;;;;5054666;28;20201;-67
2023/03/29 01:59:44;;;;;;;8.90;5.53;;;;;;;;;;5036556;28;20186;-67
2023/03/29 02:02:13;;;;;;;6.77;5.67;;;;;;;;;;5053645;28;20261;-68
2023/03/29 02:04:43;;;;;;;9.53;5.80;;;;;;;;;;5054149;28;20179;-68
2023/03/29 02:07:09;;;;;;;8.00;5.23;;;;;;;;;;5054323;28;20282;-67
2023/03/29 02:09:37;;;;;;;8.30;5.80;;;;;;;;;;5054537;28;20206;-67
2023/03/29 02:12:03;;;;;;;10.93;6.97;;;;;;;;;;5055090;28;20182;-68
2023/03/29 02:14:29;;;;;;;15.33;7.23;;;;;;;;;;5054038;28;20183;-69
2023/03/29 02:16:55;;;;;;;8.13;6.70;;;;;;;;;;5053819;28;20277;-68
2023/03/29 02:19:23;;;;;;;11.67;7.17;;;;;;;;;;5036017;28;20193;-63
2023/03/29 02:21:54;;;;;;;11.13;6.80;;;;;;;;;;5053845;28;20174;-65
2023/03/29 02:24:21;;;;;;;12.63;6.90;;;;;;;;;;5053996;28;20240;-65
2023/03/29 02:26:48;;;;;;;11.83;6.60;;;;;;;;;;5053946;28;20198;-65
2023/03/29 02:29:14;;;;;;;10.53;6.33;;;;;;;;;;5053808;28;20225;-66
2023/03/29 02:31:40;;;;;;;10.13;6.47;;;;;;;;;;5053656;28;20181;-65
2023/03/29 02:34:10;;;;;;;9.10;6.60;;;;;;;;;;5053563;28;20178;-65
2023/03/29 02:36:41;;;;;;;12.37;6.17;;;;;;;;;;5053470;28;20194;-65
2023/03/29 02:39:08;;;;;;;8.73;6.40;;;;;;;;;;5053403;28;20190;-64
2023/03/29 02:41:36;;;;;;;9.57;6.43;;;;;;;;;;5053455;28;20261;-65
2023/03/29 02:44:03;;;;;;;13.97;6.60;;;;;;;;;;5035593;28;20664;-64
2023/03/29 02:46:29;;;;;;;12.70;7.10;;;;;;;;;;5053594;28;20236;-65
2023/03/29 02:48:56;;;;;;;9.10;6.90;;;;;;;;;;5053748;28;20194;-64
2023/03/29 02:51:24;;;;;;;9.83;5.90;;;;;;;;;;5053499;28;20270;-66
2023/03/29 02:53:59;;;;;;;8.23;5.23;;;;;;;;;;5053843;28;20224;-65
2023/03/29 02:56:25;;;;;;;6.00;4.93;;;;;;;;;;5054151;28;20186;-65
2023/03/29 02:58:51;;;;;;;5.90;4.83;;;;;;;;;;5036438;28;20545;-66
2023/03/29 03:01:19;;;;;;;8.50;5.23;;;;;;;;;;5035625;28;20273;-66
2023/03/29 03:03:44;;;;;;;5.77;4.80;;;;;;;;;;5053993;28;20174;-66
2023/03/29 03:06:11;;;;;;;6.23;4.80;;;;;;;;;;5054934;28;20225;-65
2023/03/29 03:08:37;;;;;;;8.13;5.10;;;;;;;;;;5053884;28;20195;-67
2023/03/29 03:11:03;;;;;;;8.57;5.40;;;;;;;;;;5053874;28;20670;-66
2023/03/29 03:13:29;;;;;;;11.90;5.33;;;;;;;;;;5053005;28;20178;-64
2023/03/29 03:15:55;;;;;;;9.77;5.80;;;;;;;;;;5053013;28;20590;-66
2023/03/29 03:18:22;;;;;;;10.13;5.63;;;;;;;;;;5053484;28;20174;-66
2023/03/29 03:20:54;;;;;;;10.90;6.60;;;;;;;;;;5035044;28;20189;-66
2023/03/29 03:23:21;;;;;;;7.00;5.30;;;;;;;;;;5052857;28;20686;-63
2023/03/29 03:25:48;;;;;;;12.83;6.33;;;;;;;;;;5052817;28;20730;-65
2023/03/29 03:28:14;;;;;;;7.63;5.93;;;;;;;;;;5052751;28;20550;-66
2023/03/29 03:30:40;;;;;;;10.20;6.67;;;;;;;;;;5052780;28;20717;-64
2023/03/29 03:33:06;;;;;;;12.10;6.40;;;;;;;;;;5053357;28;20257;-64
2023/03/29 03:35:33;;;;;;;12.70;6.47;;;;;;;;;;5034985;28;20677;-66
2023/03/29 03:38:00;;;;;;;6.27;5.23;;;;;;;;;;5052969;28;20171;-66
2023/03/29 03:40:26;;;;;;;10.23;5.53;;;;;;;;;;5052925;28;20178;-64
2023/03/29 03:42:52;;;;;;;7.17;5.50;;;;;;;;;;5052959;28;20174;-64
2023/03/29 03:45:18;;;;;;;8.23;5.57;;;;;;;;;;5053013;28;20204;-65
2023/03/29 03:47:44;;;;;;;8.70;4.97;;;;;;;;;;5052477;28;20214;-66
2023/03/29 03:50:11;;;;;;;9.37;5.20;;;;;;;;;;5052930;28;20194;-62
2023/03/29 03:52:37;;;;;;;7.23;4.97;;;;;;;;;;5053101;28;20293;-66
2023/03/29 03:55:03;;;;;;;7.77;4.90;;;;;;;;;;5053666;28;20253;-66
2023/03/29 03:57:28;;;;;;;7.30;4.67;;;;;;;;;;5035157;28;20201;-65
2023/03/29 03:59:55;;;;;;;8.20;5.00;;;;;;;;;;5035132;28;20222;-66
2023/03/29 04:02:21;;;;;;;7.30;5.30;;;;;;;;;;5053352;28;20179;-65
2023/03/29 04:04:47;;;;;;;11.00;5.73;;;;;;;;;;5036020;28;20221;-65
2023/03/29 04:07:16;;;;;;;9.20;6.10;;;;;;;;;;5053354;28;20709;-65
2023/03/29 04:09:43;;;;;;;9.47;5.70;;;;;;;;;;5053004;28;20289;-66
2023/03/29 04:12:10;;;;;;;9.40;5.67;;;;;;;;;;5053072;28;20185;-66
2023/03/29 04:14:36;;;;;;;9.33;6.03;;;;;;;;;;5052667;28;20667;-65
2023/03/29 04:17:02;;;;;;;8.90;6.13;;;;;;;;;;5052979;28;20198;-65
2023/03/29 04:19:28;;;;;;;10.73;6.43;;;;;;;;;;5053154;28;20257;-65
2023/03/29 04:21:54;;;;;;;12.87;5.97;;;;;;;;;;5035201;28;20190;-66
2023/03/29 04:24:20;;;;;;;10.30;6.17;;;;;;;;;;5053158;28;20201;-65
2023/03/29 04:26:47;;;;;;;9.33;6.00;;;;;;;;;;5055293;28;20202;-64
2023/03/29 04:29:13;;;;;;;7.60;6.37;;;;;;;;;;5056982;28;20206;-64
2023/03/29 04:31:39;;;;;;;7.33;6.43;;;;;;;;;;5057316;28;20663;-65
2023/03/29 04:34:05;;;;;;;8.13;6.37;;;;;;;;;;5038744;28;20309;-64
2023/03/29 04:36:31;;;;;;;10.27;7.33;;;;;;;;;;5038496;28;20664;-64
2023/03/29 04:39:00;;;;;;;10.87;6.83;;;;;;;;;;5056350;28;20182;-65
2023/03/29 04:41:26;;;;;;;9.37;7.07;;;;;;;;;;5056387;28;20181;-66
2023/03/29 04:43:52;;;;;;;12.37;7.60;;;;;;;;;;5038358;28;20179;-66
2023/03/29 04:46:18;;;;;;;9.97;7.17;;;;;;;;;;5055668;28;20297;-66
2023/03/29 04:48:44;;;;;;;14.27;7.40;;;;;;;;;;5037782;28;20558;-66
2023/03/29 04:51:10;;;;;;;12.23;7.17;;;;;;;;;;5055571;28;20185;-65
2023/03/29 04:53:36;;;;;;;14.60;8.53;;;;;;;;;;5037607;28;20210;-66
2023/03/29 04:56:02;;;;;;;12.50;7.93;;;;;;;;;;5055536;28;20198;-66
2023/03/29 04:58:28;;;;;;;12.03;8.27;;;;;;;;;;5055670;28;20595;-65
2023/03/29 05:00:57;;;;;;;10.60;7.80;;;;;;;;;;5055845;28;20185;-65
2023/03/29 05:03:24;;;;;;;14.00;8.00;;;;;;;;;;5055395;28;20186;-63
2023/03/29 05:05:50;;;;;;;18.43;9.17;;;;;;;;;;5037435;28;20263;-66
2023/03/29 05:08:16;;;;;;;14.03;9.23;;;;;;;;;;5055154;28;20197;-65
2023/03/29 05:10:43;;;;;;;17.87;9.93;;;;;;;;;;5055128;28;20182;-66
2023/03/29 05:13:09;;;;;;;22.57;10.40;;;;;;;;;;5055158;28;20170;-65
2023/03/29 05:15:35;;;;;;;14.40;9.80;;;;;;;;;;5055020;28;20189;-65
2023/03/29 05:18:01;;;;;;;17.03;8.77;;;;;;;;;;5055267;28;20182;-66
2023/03/29 05:20:28;;;;;;;16.53;9.63;;;;;;;;;;5037013;28;20668;-65
2023/03/29 05:22:54;;;;;;;13.50;8.77;;;;;;;;;;5055321;28;20178;-66
2023/03/29 05:25:20;;;;;;;12.20;8.80;;;;;;;;;;5055400;28;20592;-69
2023/03/29 05:27:46;;;;;;;11.97;9.17;;;;;;;;;;5054756;28;20649;-65
2023/03/29 05:30:14;;;;;;;17.83;9.57;;;;;;;;;;5054920;28;20221;-66
2023/03/29 05:32:40;;;;;;;12.07;9.27;;;;;;;;;;5054998;28;20171;-65
2023/03/29 05:35:06;;;;;;;12.33;9.63;;;;;;;;;;5036781;28;20566;-66
2023/03/29 05:37:33;;;;;;;14.63;9.40;;;;;;;;;;5053455;28;20248;-66
2023/03/29 05:39:59;;;;;;;15.83;9.67;;;;;;;;;;5055419;28;20266;-66
2023/03/29 05:42:26;;;;;;;16.37;9.77;;;;;;;;;;5054752;28;20178;-64
2023/03/29 05:44:52;;;;;;;16.87;10.63;;;;;;;;;;5054703;28;20174;-65
2023/03/29 05:47:18;;;;;;;16.00;10.60;;;;;;;;;;5054649;28;20721;-66
2023/03/29 05:49:45;;;;;;;15.47;10.97;;;;;;;;;;5054653;28;20195;-64
2023/03/29 05:52:11;;;;;;;24.83;10.57;;;;;;;;;;5036768;28;20556;-66
2023/03/29 05:54:37;;;;;;;15.73;10.47;;;;;;;;;;5054725;28;20175;-64
2023/03/29 05:57:03;;;;;;;18.30;10.97;;;;;;;;;;5036434;28;20195;-66
2023/03/29 05:59:29;;;;;;;15.67;10.10;;;;;;;;;;5054321;28;20174;-66
2023/03/29 06:01:55;;;;;;;12.13;8.90;;;;;;;;;;5054383;28;20265;-66
2023/03/29 06:04:21;;;;;;;16.37;10.00;;;;;;;;;;5054197;28;20182;-65
2023/03/29 06:06:47;;;;;;;12.03;8.23;;;;;;;;;;5054161;28;20209;-66
2023/03/29 06:09:14;;;;;;;15.87;8.93;;;;;;;;;;5054296;28;20210;-65
2023/03/29 06:11:40;;;;;;;11.57;9.33;;;;;;;;;;5054122;28;20524;-64
2023/03/29 06:14:06;;;;;;;13.27;8.83;;;;;;;;;;5054231;28;20178;-66
2023/03/29 06:16:32;;;;;;;23.30;9.20;;;;;;;;;;5053976;28;20244;-66
2023/03/29 06:18:58;;;;;;;12.67;8.90;;;;;;;;;;5054084;28;20602;-64
2023/03/29 06:21:26;;;;;;;14.83;8.40;;;;;;;;;;5035965;28;20182;-66
2023/03/29 06:23:52;;;;;;;10.43;8.43;;;;;;;;;;5053930;28;20667;-66
2023/03/29 06:26:18;;;;;;;13.73;9.67;;;;;;;;;;5053763;28;20198;-65
2023/03/29 06:28:45;;;;;;;19.50;9.53;;;;;;;;;;5053934;28;20198;-65
2023/03/29 06:31:11;;;;;;;15.43;9.10;;;;;;;;;;5053667;28;20171;-65
2023/03/29 06:33:39;;;;;;;13.40;8.50;;;;;;;;;;5053634;28;20641;-65
2023/03/29 06:36:05;;;;;;;15.93;8.87;;;;;;;;;;5053589;28;20240;-66
2023/03/29 06:38:31;;;;;;;12.80;8.43;;;;;;;;;;5053547;28;20182;-65
2023/03/29 06:41:01;;;;;;;20.27;8.90;;;;;;;;;;5053715;28;20182;-64
2023/03/29 06:43:27;;;;;;;17.57;9.10;;;;;;;;;;5053455;28;20652;-65
2023/03/29 06:45:53;;;;;;;17.90;9.33;;;;;;;;;;5035317;28;20209;-64
2023/03/29 06:48:19;;;;;;;17.17;9.00;;;;;;;;;;5035557;28;20173;-66
2023/03/29 06:50:46;;;;;;;13.30;8.50;;;;;;;;;;5053217;28;20170;-65
2023/03/29 06:53:13;;;;;;;17.00;9.17;;;;;;;;;;5053497;28;20224;-65
2023/03/29 06:55:38;;;;;;;17.73;9.50;;;;;;;;;;5053271;28;20177;-64
2023/03/29 06:58:07;;;;;;;12.47;8.20;;;;;;;;;;5053170;28;20265;-65
2023/03/29 07:00:34;;;;;;;15.50;7.93;;;;;;;;;;5053207;28;20175;-65
2023/03/29 07:03:05;;;;;;;15.77;8.27;;;;;;;;;;5035280;28;20197;-64
2023/03/29 07:05:31;;;;;;;13.43;7.53;;;;;;;;;;5053508;28;20208;-64
2023/03/29 07:08:09;;;;;;;14.83;8.30;;;;;;;;;;5054108;28;20261;-64
2023/03/29 07:10:38;;;;;;;14.83;7.53;;;;;;;;;;5053546;28;20644;-65
2023/03/29 07:13:07;;;;;;;11.80;6.93;;;;;;;;;;5053822;28;20308;-65
2023/03/29 07:15:33;;;;;;;13.63;7.83;;;;;;;;;;5053028;28;20551;-64
2023/03/29 07:18:01;;;;;;;13.40;8.47;;;;;;;;;;5053125;28;20181;-66
2023/03/29 07:20:27;;;;;;;17.33;9.07;;;;;;;;;;5053177;28;20223;-67
2023/03/29 07:22:53;;;;;;;12.40;8.23;;;;;;;;;;5053307;28;20178;-65
2023/03/29 07:25:20;;;;;;;14.70;9.30;;;;;;;;;;5053240;28;20281;-64
2023/03/29 07:27:46;;;;;;;17.00;10.33;;;;;;;;;;5052885;28;20240;-65
2023/03/29 07:30:16;;;;;;;11.30;8.43;;;;;;;;;;5052761;28;20216;-65
2023/03/29 07:32:44;;;;;;;13.83;9.33;;;;;;;;;;5053176;28;20645;-65
2023/03/29 07:35:11;;;;;;;10.67;6.63;;;;;;;;;;5052943;28;20170;-64
2023/03/29 07:37:37;;;;;;;11.80;7.27;;;;;;;;;;5034917;28;20202;-65
2023/03/29 07:40:22;;;;;;;10.23;7.50;;;;;;;;;;5052854;28;20210;-66
2023/03/29 07:42:48;;;;;;;13.50;7.07;;;;;;;;;;5053177;28;20181;-65
2023/03/29 07:45:15;;;;;;;9.77;6.33;;;;;;;;;;5053032;28;20186;-65
2023/03/29 07:47:45;;;;;;;14.70;6.50;;;;;;;;;;5053349;28;20648;-63
2023/03/29 07:50:11;;;;;;;8.60;6.23;;;;;;;;;;5052982;28;20199;-64
2023/03/29 07:52:38;;;;;;;11.23;6.93;;;;;;;;;;5053033;28;20178;-67
2023/03/29 07:55:05;;;;;;;9.83;6.23;;;;;;;;;;5052762;28;20194;-64
2023/03/29 07:57:31;;;;;;;10.37;6.30;;;;;;;;;;5052569;28;20197;-65
2023/03/29 07:59:57;;;;;;;11.70;6.37;;;;;;;;;;5052791;28;20179;-65
2023/03/29 08:02:23;;;;;;;11.60;6.63;;;;;;;;;;5056607;28;20175;-65
2023/03/29 08:04:49;;;;;;;10.33;6.40;;;;;;;;;;5056339;28;20606;-64
2023/03/29 08:07:18;;;;;;;10.83;6.70;;;;;;;;;;5056781;28;20562;-64
2023/03/29 08:09:44;;;;;;;9.37;6.13;;;;;;;;;;5056539;28;20194;-64
2023/03/29 08:12:10;;;;;;;12.43;5.93;;;;;;;;;;5057012;28;20181;-65
2023/03/29 08:14:37;;;;;;;8.23;6.13;;;;;;;;;;5038525;28;20636;-65
2023/03/29 08:17:03;;;;;;;7.43;5.60;;;;;;;;;;5066305;23;20244;-69
2023/03/29 08:19:30;;;;;;;10.03;6.23;;;;;;;;;;5058113;28;20204;-69
2023/03/29 08:21:56;;;;;;;13.07;6.80;;;;;;;;;;5076069;28;20170;-68
2023/03/29 08:24:22;;;;;;;13.03;6.70;;;;;;;;;;5076282;28;20190;-69
2023/03/29 08:26:48;;;;;;;12.63;7.23;;;;;;;;;;5057923;28;20558;-69
2023/03/29 08:29:14;;;;;;;13.83;7.30;;;;;;;;;;5076081;28;20221;-68
2023/03/29 08:31:40;;;;;;;13.50;7.60;;;;;;;;;;5058427;28;20220;-67
2023/03/29 08:34:06;;;;;;;18.80;7.77;;;;;;;;;;5058680;28;20177;-67
2023/03/29 08:36:32;;;;;;;13.37;7.57;;;;;;;;;;5058129;28;20205;-67
2023/03/29 08:38:58;;;;;;;9.83;7.00;;;;;;;;;;5058283;28;20185;-69
2023/03/29 08:41:39;;;;;;;11.23;7.40;;;;;;;;;;5075664;28;20186;-68
2023/03/29 08:44:13;;;;;;;13.20;6.70;;;;;;;;;;5075696;28;20530;-68
2023/03/29 08:46:41;;;;;;;13.37;7.27;;;;;;;;;;5075917;28;20202;-68
2023/03/29 08:49:09;;;;;;;11.13;7.47;;;;;;;;;;5057633;28;20210;-68
2023/03/29 08:51:41;;;;;;;8.40;7.03;;;;;;;;;;5058856;28;20178;-68
2023/03/29 08:54:19;;;;;;;17.17;7.20;;;;;;;;;;5059199;28;20206;-68
2023/03/29 08:56:46;;;;;;;13.97;8.10;;;;;;;;;;5076835;28;20276;-69
2023/03/29 08:59:17;;;;;;;10.03;6.47;;;;;;;;;;5058060;28;20185;-68
2023/03/29 09:01:43;;;;;;;13.40;6.33;;;;;;;;;;5075726;28;20162;-68
2023/03/29 09:04:12;;;;;;;12.67;6.83;;;;;;;;;;5075339;28;20177;-68
2023/03/29 09:06:41;;;;;;;9.97;6.17;;;;;;;;;;5075266;28;20622;-68
2023/03/29 09:09:16;;;;;;;11.20;5.70;;;;;;;;;;5075211;28;20219;-68
2023/03/29 09:11:51;;;;;;;7.27;5.90;;;;;;;;;;5056856;28;20182;-68
2023/03/29 09:14:29;;;;;;;11.63;6.07;;;;;;;;;;5075066;28;20180;-68
2023/03/29 09:17:14;;;;;;;9.53;5.70;;;;;;;;;;5056934;28;20586;-69
2023/03/29 09:19:48;;;;;;;8.33;5.30;;;;;;;;;;5075155;28;20181;-69
2023/03/29 09:22:21;;;;;;;14.00;5.90;;;;;;;;;;5057000;28;20177;-69
2023/03/29 09:24:53;;;;;;;7.37;5.80;;;;;;;;;;5057172;28;20174;-68
2023/03/29 09:27:26;;;;;;;10.00;5.83;;;;;;;;;;5075142;28;20686;-69
2023/03/29 09:29:58;;;;;;;11.93;6.43;;;;;;;;;;5056895;28;20205;-69
2023/03/29 09:32:42;;;;;;;8.37;5.70;;;;;;;;;;5074861;28;20154;-69
2023/03/29 09:35:19;;;;;;;9.80;6.63;;;;;;;;;;5074882;28;20201;-68
2023/03/29 09:37:46;;;;;;;8.47;6.17;;;;;;;;;;5075145;28;20208;-69
2023/03/29 09:40:17;;;;;;;13.83;7.90;;;;;;;;;;5057591;28;20220;-69
2023/03/29 09:42:44;;;;;;;18.27;15.30;;;;;;;;;;5058111;28;20613;-69
2023/03/29 09:45:10;;;;;;;6.83;5.80;;;;;;;;;;5057056;28;20216;-68
2023/03/29 09:47:43;;;;;;;7.07;5.70;;;;;;;;;;5056947;28;20182;-69
2023/03/29 09:50:15;;;;;;;8.80;6.00;;;;;;;;;;5056681;28;20288;-69
2023/03/29 09:52:41;;;;;;;12.33;7.50;;;;;;;;;;5056663;28;20188;-69
2023/03/29 09:55:07;;;;;;;49.63;37.77;;;;;;;;;;5074299;28;20169;-69
2023/03/29 09:57:33;;;;;;;17.97;15.10;;;;;;;;;;5056212;28;20186;-69
2023/03/29 10:00:04;;;;;;;8.47;5.63;;;;;;;;;;5074191;28;20178;-69
2023/03/29 10:02:31;;;;;;;8.53;6.73;;;;;;;;;;5074703;28;20162;-69
2023/03/29 10:05:02;;;;;;;8.73;6.43;;;;;;;;;;5056319;28;20181;-70
2023/03/29 10:07:43;;;;;;;9.67;6.17;;;;;;;;;;5074299;28;20205;-69
2023/03/29 10:10:10;;;;;;;10.47;6.23;;;;;;;;;;5074375;28;20201;-70
2023/03/29 10:12:36;;;;;;;11.33;6.70;;;;;;;;;;5073971;28;20174;-69
2023/03/29 10:15:04;;;;;;;9.93;5.97;;;;;;;;;;5073942;28;20174;-69
2023/03/29 10:17:37;;;;;;;7.97;6.30;;;;;;;;;;5073951;28;20564;-69
2023/03/29 10:20:04;;;;;;;8.63;6.53;;;;;;;;;;5074162;28;20642;-68
2023/03/29 10:22:36;;;;;;;8.70;6.57;;;;;;;;;;5055606;28;20174;-69
2023/03/29 10:25:02;;;;;;;13.47;6.30;;;;;;;;;;5073898;28;20174;-69
2023/03/29 10:27:29;;;;;;;9.23;5.93;;;;;;;;;;5073608;28;20198;-68
2023/03/29 10:29:57;;;;;;;10.03;6.40;;;;;;;;;;5073623;28;20201;-68
2023/03/29 10:32:36;;;;;;;8.07;6.10;;;;;;;;;;5073763;28;20380;-69
2023/03/29 10:35:09;;;;;;;13.87;8.10;;;;;;;;;;5055826;28;20268;-69
2023/03/29 10:37:39;;;;;;;13.77;8.67;;;;;;;;;;5073701;28;20585;-69
2023/03/29 10:40:05;;;;;;;9.17;6.07;;;;;;;;;;5073868;28;20188;-70
2023/03/29 10:42:31;;;;;;;12.60;6.40;;;;;;;;;;5055775;28;20575;-70
2023/03/29 10:44:58;;;;;;;10.47;6.17;;;;;;;;;;5055576;28;20182;-69
2023/03/29 10:47:24;;;;;;;10.50;5.50;;;;;;;;;;5055387;28;20274;-69
2023/03/29 10:49:52;;;;;;;12.97;6.27;;;;;;;;;;5055341;28;20209;-70
2023/03/29 10:52:19;;;;;;;9.30;6.33;;;;;;;;;;5055519;28;20601;-70
2023/03/29 10:54:46;;;;;;;12.37;6.23;;;;;;;;;;5073373;28;20632;-70
2023/03/29 10:57:14;;;;;;;11.53;7.70;;;;;;;;;;5055083;28;20213;-69
2023/03/29 10:59:49;;;;;;;11.67;6.97;;;;;;;;;;5055319;28;20651;-70
2023/03/29 11:02:15;;;;;;;10.53;5.57;;;;;;;;;;5055235;28;20193;-69
2023/03/29 11:05:00;;;;;;;13.47;5.97;;;;;;;;;;5055820;28;20268;-69
2023/03/29 11:07:29;;;;;;;11.63;7.47;;;;;;;;;;5073083;28;20213;-69
2023/03/29 11:10:14;;;;;;;8.27;5.07;;;;;;;;;;5072902;28;20235;-69
2023/03/29 11:12:46;;;;;;;12.30;5.40;;;;;;;;;;5073104;28;20181;-69
2023/03/29 11:15:15;;;;;;;10.07;5.50;;;;;;;;;;5073426;28;20522;-69
2023/03/29 11:17:49;;;;;;;9.53;5.80;;;;;;;;;;5072907;28;20537;-69
2023/03/29 11:20:27;;;;;;;10.00;5.73;;;;;;;;;;5073133;28;20169;-67
2023/03/29 11:23:02;;;;;;;10.20;4.90;;;;;;;;;;5072918;28;20165;-69
2023/03/29 11:25:38;;;;;;;6.60;4.60;;;;;;;;;;5054865;28;20201;-69
2023/03/29 11:28:14;;;;;;;9.23;5.93;;;;;;;;;;5072766;28;20201;-69
2023/03/29 11:30:55;;;;;;;9.63;5.77;;;;;;;;;;5054854;28;20675;-69
2023/03/29 11:33:39;;;;;;;8.73;6.20;;;;;;;;;;5072837;28;20169;-68
2023/03/29 11:36:15;;;;;;;14.43;9.93;;;;;;;;;;5076842;28;20220;-69
2023/03/29 11:38:46;;;;;;;9.97;6.53;;;;;;;;;;5059635;28;20181;-69
2023/03/29 11:41:18;;;;;;;9.97;6.90;;;;;;;;;;5059328;28;20185;-68
2023/03/29 11:44:05;;;;;;;8.00;5.10;;;;;;;;;;5059314;28;20181;-69
2023/03/29 11:46:39;;;;;;;9.57;4.90;;;;;;;;;;5077247;28;20288;-69
2023/03/29 11:49:14;;;;;;;6.27;4.67;;;;;;;;;;5077066;28;20211;-68
2023/03/29 11:51:54;;;;;;;8.33;4.93;;;;;;;;;;5076914;28;20203;-67
2023/03/29 11:54:25;;;;;;;8.57;4.70;;;;;;;;;;5076993;28;20660;-68
2023/03/29 11:56:54;;;;;;;9.57;4.80;;;;;;;;;;5077023;28;20280;-68
2023/03/29 11:59:26;;;;;;;8.40;4.53;;;;;;;;;;5076828;28;20235;-69
2023/03/29 12:01:57;;;;;;;7.60;4.60;;;;;;;;;;5058538;28;20678;-67
2023/03/29 12:04:28;;;;;;;7.53;4.03;;;;;;;;;;5077074;28;20173;-67
2023/03/29 12:07:09;;;;;;;6.83;4.33;;;;;;;;;;5076615;28;20281;-68
2023/03/29 12:09:41;;;;;;;5.90;3.80;;;;;;;;;;5076346;28;20557;-68
2023/03/29 12:12:10;;;;;;;8.87;5.33;;;;;;;;;;5058500;28;20185;-68
2023/03/29 12:14:45;;;;;;;16.93;5.70;;;;;;;;;;5058489;28;20189;-68
2023/03/29 12:17:14;;;;;;;16.57;9.93;;;;;;;;;;5058174;28;20330;-67
2023/03/29 12:19:43;;;;;;;6.53;4.27;;;;;;;;;;5076336;28;20174;-68
2023/03/29 12:22:09;;;;;;;7.93;4.53;;;;;;;;;;5058143;28;20177;-68
2023/03/29 12:24:37;;;;;;;7.67;4.87;;;;;;;;;;5076132;28;20231;-68
2023/03/29 12:27:10;;;;;;;8.50;4.13;;;;;;;;;;5058147;28;20592;-68
2023/03/29 12:29:36;;;;;;;6.07;3.40;;;;;;;;;;5058121;28;20263;-67
2023/03/29 12:32:14;;;;;;;6.00;3.40;;;;;;;;;;5076022;28;20628;-68
2023/03/29 12:35:01;;;;;;;6.10;3.33;;;;;;;;;;5058047;28;20178;-68
2023/03/29 12:37:32;;;;;;;4.83;3.57;;;;;;;;;;5075719;28;20197;-67
2023/03/29 12:40:05;;;;;;;8.67;4.50;;;;;;;;;;5058284;28;20699;-67
2023/03/29 12:42:31;;;;;;;5.13;3.23;;;;;;;;;;5076104;28;20177;-69
2023/03/29 12:44:58;;;;;;;8.07;3.97;;;;;;;;;;5076267;28;20181;-68
2023/03/29 12:47:26;;;;;;;5.13;3.50;;;;;;;;;;5075621;28;20655;-68
2023/03/29 12:49:54;;;;;;;16.77;6.90;;;;;;;;;;5075711;28;20202;-67
2023/03/29 12:52:25;;;;;;;6.70;5.00;;;;;;;;;;5057812;28;20178;-68
2023/03/29 12:54:59;;;;;;;7.57;4.83;;;;;;;;;;5075841;28;20204;-68
2023/03/29 12:57:27;;;;;;;9.30;5.33;;;;;;;;;;5076027;28;20611;-68
2023/03/29 12:59:53;;;;;;;15.87;10.77;;;;;;;;;;5075758;28;20558;-68
2023/03/29 13:02:25;;;;;;;8.50;5.80;;;;;;;;;;5057510;28;20182;-68
2023/03/29 13:04:51;;;;;;;5.83;4.60;;;;;;;;;;5075966;28;20169;-68
2023/03/29 13:07:26;;;;;;;13.23;8.00;;;;;;;;;;5075465;28;20201;-68
2023/03/29 13:09:52;;;;;;;14.00;9.63;;;;;;;;;;5057317;28;20211;-67
2023/03/29 13:12:25;;;;;;;25.17;17.10;;;;;;;;;;5075620;28;20171;-68
2023/03/29 13:15:20;;;;;;;20.17;14.37;;;;;;;;;;5075393;28;20558;-68
2023/03/29 13:18:13;;;;;;;16.63;11.63;;;;;;;;;;5075391;28;20173;-68
2023/03/29 13:20:47;;;;;;;10.23;5.87;;;;;;;;;;5075212;28;20216;-68
2023/03/29 13:23:25;;;;;;;7.50;5.53;;;;;;;;;;5057253;28;20181;-68
2023/03/29 13:25:51;;;;;;;8.50;4.67;;;;;;;;;;5057084;28;20205;-67
2023/03/29 13:28:17;;;;;;;6.63;3.80;;;;;;;;;;5075264;28;20174;-68
2023/03/29 13:30:47;;;;;;;6.90;3.97;;;;;;;;;;5057114;28;20764;-68
2023/03/29 13:33:18;;;;;;;6.27;4.70;;;;;;;;;;5056990;28;20177;-68
2023/03/29 13:35:53;;;;;;;5.63;4.00;;;;;;;;;;5075024;28;20581;-68
2023/03/29 13:38:25;;;;;;;8.37;3.77;;;;;;;;;;5075035;28;20161;-68
2023/03/29 13:41:02;;;;;;;7.93;4.13;;;;;;;;;;5074701;28;20169;-69
2023/03/29 13:43:36;;;;;;;5.77;3.73;;;;;;;;;;5074639;28;20531;-68
2023/03/29 13:46:02;;;;;;;5.30;3.50;;;;;;;;;;5056446;28;20304;-68
2023/03/29 13:48:43;;;;;;;6.33;3.70;;;;;;;;;;5074449;28;20589;-69
2023/03/29 13:51:18;;;;;;;4.60;3.20;;;;;;;;;;5074514;28;20162;-68
2023/03/29 13:53:50;;;;;;;6.47;3.40;;;;;;;;;;5074407;28;20185;-69
2023/03/29 13:56:19;;;;;;;5.27;3.07;;;;;;;;;;5074361;28;20256;-68
2023/03/29 13:58:48;;;;;;;4.60;2.97;;;;;;;;;;5055274;28;20186;-68
2023/03/29 14:01:46;;;;;;;6.03;3.40;;;;;;;;;;5056446;28;20648;-68
2023/03/29 14:04:23;;;;;;;7.27;3.20;;;;;;;;;;5029986;28;20220;-68
2023/03/29 14:06:52;;;;;;;8.77;3.50;;;;;;;;;;5056193;28;20205;-69
2023/03/29 14:09:19;;;;;;;4.83;3.00;;;;;;;;;;5073984;28;20255;-69
2023/03/29 14:11:46;;;;;;;2.60;2.30;;;;;;;;;;5056193;28;20177;-68
2023/03/29 14:14:12;;;;;;;4.10;2.43;;;;;;;;;;5074130;28;20200;-67
2023/03/29 14:16:39;;;;;;;8.17;2.30;;;;;;;;;;5073972;28;20202;-68
2023/03/29 14:19:41;;;;;;;2.53;2.03;;;;;;;;;;5095085;22;20320;-67
2023/03/29 14:22:08;;;;;;;3.37;2.27;;;;;;;;;;4992843;28;20602;-67
2023/03/29 14:24:37;;;;;;;5.63;2.20;;;;;;;;;;5058697;28;20189;-67
2023/03/29 14:27:09;;;;;;;6.67;2.27;;;;;;;;;;5055888;28;20200;-67
2023/03/29 14:29:35;;;;;;;2.87;2.23;;;;;;;;;;5055663;28;20206;-67
2023/03/29 14:32:10;;;;;;;3.97;2.50;;;;;;;;;;5055657;28;20173;-67
2023/03/29 14:34:37;;;;;;;3.23;2.27;;;;;;;;;;5055633;28;20227;-67
2023/03/29 14:37:03;;;;;;;3.80;2.43;;;;;;;;;;5073553;28;20182;-65
2023/03/29 14:39:31;;;;;;;8.13;2.53;;;;;;;;;;5073633;28;20577;-67
2023/03/29 14:41:57;;;;;;;4.00;2.40;;;;;;;;;;5055635;28;20559;-66
2023/03/29 14:44:25;;;;;;;3.77;1.97;;;;;;;;;;5073584;28;20181;-67
2023/03/29 14:46:52;;;;;;;4.13;2.60;;;;;;;;;;5073453;28;20178;-67
2023/03/29 14:49:19;;;;;;;3.27;2.20;;;;;;;;;;5073314;28;20208;-67